Links Sitemap Venhuizerweer voor mobiel

AMSTERDAM SCHIPHOL:
Amsterdam Airport Schiphol, Netherlands (EHAM) 52-18N 004-46E -2M
Dec 13, 2018 - 12:55 AM EST / 2018.12.13 0555 UTC
Wind: from the E (080 degrees) at 14 MPH (12 KT):0
Visibility: 4 mile(s):0
Sky conditions: mostly clear
Temperature: 33 F (1 C)
Windchill: 23 F (-5 C):1
Dew Point: 32 F (0 C)
Relative Humidity: 93%
Pressure (altimeter): 30.18 in. Hg (1022 hPa)
ob: EHAM 130555Z 08012KT 8000 FEW007 01/00 Q1022 NOSIG
cycle: 6
DEELEN:
Deelen, Netherlands (EHDL) 52-04N 005-53E 52M
Dec 13, 2018 - 12:55 AM EST / 2018.12.13 0555 UTC
Wind: from the E (080 degrees) at 12 MPH (10 KT) (direction variable):0
Visibility: 4 mile(s):0
Weather: mist
Temperature: 33 F (1 C)
Windchill: 24 F (-4 C):1
Dew Point: 32 F (0 C)
Relative Humidity: 93%
Pressure (altimeter): 30.18 in. Hg (1022 hPa)
ob: EHDL 130555Z AUTO 08010KT 010V140 7000 BR NCD 01/M00 Q1022 WHT
cycle: 6
DE KOOY:
De Kooy, Netherlands (EHKD) 52-55N 004-47E 14M
Dec 13, 2018 - 12:55 AM EST / 2018.12.13 0555 UTC
Wind: from the E (100 degrees) at 15 MPH (13 KT) (direction variable):0
Visibility: greater than 7 mile(s):0
Sky conditions: overcast
Temperature: 35 F (2 C)
Windchill: 24 F (-4 C):1
Dew Point: 33 F (1 C)
Relative Humidity: 93%
Pressure (altimeter): 30.21 in. Hg (1023 hPa)
ob: EHKD 130555Z AUTO 10013KT 060V120 9999 BKN009 OVC010 02/01 Q1023 GRN 10013KT 9999 BKN009 BKN013 BECMG SCT013 BKN018
cycle: 6
EELDE:
Groningen Airport Eelde, Netherlands (EHGG) 53-08N 006-35E 4M
Dec 13, 2018 - 12:55 AM EST / 2018.12.13 0555 UTC
Wind: from the E (080 degrees) at 9 MPH (8 KT) (direction variable):0
Visibility: greater than 7 mile(s):0
Sky conditions: partly cloudy
Temperature: 35 F (2 C)
Windchill: 28 F (-2 C):1
Dew Point: 32 F (0 C)
Relative Humidity: 86%
Pressure (altimeter): 30.24 in. Hg (1024 hPa)
ob: EHGG 130555Z AUTO 08008KT 050V110 9999 SCT021 02/M00 Q1024 NOSIG
cycle: 6
EINDHOVEN:
Eindhoven, Netherlands (EHEH) 51-27N 005-25E 28M
Dec 13, 2018 - 12:55 AM EST / 2018.12.13 0555 UTC
Wind: from the ENE (070 degrees) at 8 MPH (7 KT):0
Visibility: 4 mile(s):0
Weather: mist
Temperature: 33 F (1 C)
Windchill: 26 F (-3 C):1
Dew Point: 32 F (0 C)
Relative Humidity: 93%
Pressure (altimeter): 30.15 in. Hg (1021 hPa)
ob: EHEH 130555Z AUTO 07007KT 8000 BR NCD 01/M00 Q1021 BLU 07009KT CAVOK TEMPO 5000 BR NSC
cycle: 6
GILZE-RIJEN:
Gilze-Rijen, Netherlands (EHGR) 51-34N 004-56E 24M
Dec 13, 2018 - 12:55 AM EST / 2018.12.13 0555 UTC
Wind: from the ENE (070 degrees) at 9 MPH (8 KT) (direction variable):0
Visibility: greater than 7 mile(s):0
Temperature: 32 F (0 C)
Windchill: 24 F (-4 C):1
Dew Point: 30 F (-1 C)
Relative Humidity: 92%
Pressure (altimeter): 30.15 in. Hg (1021 hPa)
ob: EHGR 130555Z AUTO 07008KT 030V100 9999 NCD 00/M01 Q1021 BLU
cycle: 6
LEEUWARDEN:
Leeuwarden, Netherlands (EHLW) 53-13N 005-46E 11M
Dec 13, 2018 - 12:55 AM EST / 2018.12.13 0555 UTC
Wind: from the E (090 degrees) at 8 MPH (7 KT) (direction variable):0
Visibility: greater than 7 mile(s):0
Sky conditions: mostly cloudy
Temperature: 35 F (2 C)
Windchill: 28 F (-2 C):1
Dew Point: 32 F (0 C)
Relative Humidity: 86%
Pressure (altimeter): 30.24 in. Hg (1024 hPa)
ob: EHLW 130555Z AUTO 09007KT 040V140 9999 BKN017 BKN021 02/00 Q1024 WHT
cycle: 6
MAASTRICHT:
Maastricht Airport Zuid Limburg, Netherlands (EHBK) 50-55N 005-47E 116M
Dec 13, 2018 - 12:55 AM EST / 2018.12.13 0555 UTC
Wind: from the ENE (070 degrees) at 10 MPH (9 KT):0
Visibility: greater than 7 mile(s):0
Temperature: 32 F (0 C)
Windchill: 23 F (-5 C):1
Dew Point: 30 F (-1 C)
Relative Humidity: 92%
Pressure (altimeter): 30.09 in. Hg (1019 hPa)
ob: EHBK 130555Z AUTO 07009KT 9999 NCD M00/M01 Q1019 NOSIG
cycle: 6
ROTTERDAM ZESTIENHOVEN:
Rotterdam Airport Zestienhoven, Netherlands (EHRD) 51-57N 004-27E -4M
Dec 13, 2018 - 12:55 AM EST / 2018.12.13 0555 UTC
Wind: from the E (080 degrees) at 9 MPH (8 KT):0
Visibility: greater than 7 mile(s):0
Temperature: 32 F (0 C)
Windchill: 24 F (-4 C):1
Dew Point: 30 F (-1 C)
Relative Humidity: 92%
Pressure (altimeter): 30.15 in. Hg (1021 hPa)
ob: EHRD 130555Z AUTO 08008KT 9999 NCD 00/M01 Q1021 NOSIG
cycle: 6
SOESTERBERG:
Soesterberg, Netherlands (EHSB) 52-08N 005-17E 25M
Nov 20, 2008 - 04:25 AM EST / 2008.11.20 0925 UTC
Wind: from the W (280 degrees) at 16 MPH (14 KT):0
Visibility: greater than 7 mile(s):0
Temperature: 51 F (11 C)
Dew Point: 48 F (9 C)
Relative Humidity: 87%
Pressure (altimeter): 29.83 in. Hg (1010 hPa)
ob: EHSB 200925Z AUTO 28014KT 9999 // 11/09 Q1010
cycle: 9
TWENTE:
Twenthe, Netherlands (EHTW) 52-16N 006-54E 57M
Apr 07, 2008 - 08:25 AM EDT / 2008.04.07 1225 UTC
Wind: from the N (010 degrees) at 7 MPH (6 KT):0
Sky conditions: mostly cloudy
Temperature: 46 F (8 C)
Dew Point: 24 F (-4 C)
Relative Humidity: 42%
Pressure (altimeter): 29.59 in. Hg (1002 hPa)
ob: EHTW 071225Z AUTO 01006KT //// // BKN200/// 08/M04 Q1002 RE//
cycle: 12
VALKENBURG:
Valkenburg, Netherlands (EHVB) 52-11N 004-25E 2M
Apr 01, 2010 - 03:55 AM EDT / 2010.04.01 0755 UTC
Wind: from the WSW (250 degrees) at 20 MPH (17 KT):0
Sky conditions: mostly cloudy
Temperature: 41 F (5 C)
Dew Point: 33 F (1 C)
Relative Humidity: 75%
Pressure (altimeter): 29.62 in. Hg (1003 hPa)
ob: EHVB 010755Z AUTO 25017KT 9999NDV FEW021/// BKN037/// 05/01 Q1003 BLU
cycle: 8
VLIELAND:
Vlieland, Netherlands (EHVL) 53-15N 004-55E 12M
Dec 13, 2018 - 12:55 AM EST / 2018.12.13 0555 UTC
Wind: from the E (100 degrees) at 22 MPH (19 KT):0
Visibility: greater than 7 mile(s):0
Sky conditions: overcast
Temperature: 37 F (3 C)
Dew Point: 32 F (0 C)
Relative Humidity: 80%
Pressure (altimeter): 30.21 in. Hg (1023 hPa)
ob: EHVL 130555Z AUTO 10019KT 9999 OVC022 03/00 Q1023 WHT
cycle: 6
VOLKEL:
Volkel, Netherlands (EHVK) 51-39N 005-42E 21M
Dec 13, 2018 - 12:55 AM EST / 2018.12.13 0555 UTC
Wind: from the ENE (060 degrees) at 12 MPH (10 KT):0
Visibility: 3 mile(s):0
Weather: mist
Temperature: 32 F (0 C)
Windchill: 23 F (-5 C):1
Dew Point: 32 F (0 C)
Relative Humidity: 100%
Pressure (altimeter): 30.15 in. Hg (1021 hPa)
ob: EHVK 130555Z AUTO 06010KT 5000 BR NCD 00/M00 Q1021 WHT
cycle: 6
WOENSDRECHT:
Woensdrecht, Netherlands (EHWO) 51-27N 004-20E 17M
Dec 13, 2018 - 12:55 AM EST / 2018.12.13 0555 UTC
Wind: from the E (080 degrees) at 7 MPH (6 KT) (direction variable):0
Visibility: 4 mile(s):0
Weather: mist
Temperature: 32 F (0 C)
Windchill: 24 F (-4 C):1
Dew Point: 30 F (-1 C)
Relative Humidity: 92%
Pressure (altimeter): 30.12 in. Hg (1020 hPa)
ob: EHWO 130555Z AUTO 08006KT 040V100 8000 BR NCD M00/M01 Q1020 BLU
cycle: 6
Copyright © 2005 - 2018 Venhuizerweer - Alle Rechten Voorbehouden


54.226.36.60